sensor_id;sensor_type;location;lat;lon;timestamp;pressure;altitude;pressure_sealevel;temperature;humidity
76404;BME280;65232;48.358;2.122;2023-05-09T00:00:11;101115.78;;;15.63;86.45
76404;BME280;65232;48.358;2.122;2023-05-09T00:00:40;101119.03;;;15.67;86.69
76404;BME280;65232;48.358;2.122;2023-05-09T00:01:14;101119.88;;;15.67;86.67
76404;BME280;65232;48.358;2.122;2023-05-09T00:01:40;101117.19;;;15.67;86.76
76404;BME280;65232;48.358;2.122;2023-05-09T00:02:08;101117.88;;;15.69;86.53
76404;BME280;65232;48.358;2.122;2023-05-09T00:02:33;101114.47;;;15.67;87.00
76404;BME280;65232;48.358;2.122;2023-05-09T00:03:00;101118.31;;;15.65;86.90
76404;BME280;65232;48.358;2.122;2023-05-09T00:03:26;101115.47;;;15.66;86.83
76404;BME280;65232;48.358;2.122;2023-05-09T00:03:52;101116.47;;;15.65;86.29
76404;BME280;65232;48.358;2.122;2023-05-09T00:04:17;101123.41;;;15.68;86.41
76404;BME280;65232;48.358;2.122;2023-05-09T00:04:42;101117.19;;;15.67;86.72
76404;BME280;65232;48.358;2.122;2023-05-09T00:05:08;101121.72;;;15.67;86.68
76404;BME280;65232;48.358;2.122;2023-05-09T00:05:34;101118.72;;;15.70;86.64
76404;BME280;65232;48.358;2.122;2023-05-09T00:05:59;101115.47;;;15.66;86.75
76404;BME280;65232;48.358;2.122;2023-05-09T00:06:26;101113.47;;;15.68;86.53
76404;BME280;65232;48.358;2.122;2023-05-09T00:06:52;101114.47;;;15.67;86.58
76404;BME280;65232;48.358;2.122;2023-05-09T00:07:17;101113.78;;;15.65;86.52
76404;BME280;65232;48.358;2.122;2023-05-09T00:07:42;101106.38;;;15.67;86.56
76404;BME280;65232;48.358;2.122;2023-05-09T00:08:08;101112.94;;;15.65;86.35
76404;BME280;65232;48.358;2.122;2023-05-09T00:08:34;101112.78;;;15.66;86.37
76404;BME280;65232;48.358;2.122;2023-05-09T00:09:00;101112.19;;;15.72;86.16
76404;BME280;65232;48.358;2.122;2023-05-09T00:09:26;101116.53;;;15.73;85.53
76404;BME280;65232;48.358;2.122;2023-05-09T00:09:51;101111.00;;;15.75;85.58
76404;BME280;65232;48.358;2.122;2023-05-09T00:10:17;101111.34;;;15.72;85.82
76404;BME280;65232;48.358;2.122;2023-05-09T00:10:42;101109.63;;;15.71;85.61
76404;BME280;65232;48.358;2.122;2023-05-09T00:11:08;101108.94;;;15.69;85.90
76404;BME280;65232;48.358;2.122;2023-05-09T00:11:33;101117.19;;;15.67;86.14
76404;BME280;65232;48.358;2.122;2023-05-09T00:11:58;101104.69;;;15.66;86.14
76404;BME280;65232;48.358;2.122;2023-05-09T00:12:24;101111.94;;;15.66;86.16
76404;BME280;65232;48.358;2.122;2023-05-09T00:12:49;101106.53;;;15.66;86.33
76404;BME280;65232;48.358;2.122;2023-05-09T00:13:15;101109.06;;;15.67;86.26
76404;BME280;65232;48.358;2.122;2023-05-09T00:13:40;101107.22;;;15.68;85.96
76404;BME280;65232;48.358;2.122;2023-05-09T00:14:09;101110.06;;;15.66;85.97
76404;BME280;65232;48.358;2.122;2023-05-09T00:14:36;101104.53;;;15.68;86.64
76404;BME280;65232;48.358;2.122;2023-05-09T00:15:05;101108.22;;;15.67;86.08
76404;BME280;65232;48.358;2.122;2023-05-09T00:15:32;101100.97;;;15.67;86.14
76404;BME280;65232;48.358;2.122;2023-05-09T00:15:57;101098.44;;;15.66;86.34
76404;BME280;65232;48.358;2.122;2023-05-09T00:16:23;101102.53;;;15.70;86.16
76404;BME280;65232;48.358;2.122;2023-05-09T00:16:50;101100.69;;;15.70;86.20
76404;BME280;65232;48.358;2.122;2023-05-09T00:17:16;101103.38;;;15.70;86.33
76404;BME280;65232;48.358;2.122;2023-05-09T00:17:42;101099.28;;;15.66;86.47
76404;BME280;65232;48.358;2.122;2023-05-09T00:18:08;101100.59;;;15.62;86.22
76404;BME280;65232;48.358;2.122;2023-05-09T00:18:34;101092.19;;;15.65;86.39
76404;BME280;65232;48.358;2.122;2023-05-09T00:19:01;101094.88;;;15.65;85.84
76404;BME280;65232;48.358;2.122;2023-05-09T00:19:27;101094.03;;;15.65;86.09
76404;BME280;65232;48.358;2.122;2023-05-09T00:19:52;101100.84;;;15.69;86.40
76404;BME280;65232;48.358;2.122;2023-05-09T00:20:18;101098.13;;;15.69;86.23
76404;BME280;65232;48.358;2.122;2023-05-09T00:20:44;101097.59;;;15.65;86.54
76404;BME280;65232;48.358;2.122;2023-05-09T00:21:09;101095.44;;;15.69;86.45
76404;BME280;65232;48.358;2.122;2023-05-09T00:21:35;101088.03;;;15.71;86.52
76404;BME280;65232;48.358;2.122;2023-05-09T00:22:00;101089.91;;;15.70;86.04
76404;BME280;65232;48.358;2.122;2023-05-09T00:22:26;101087.34;;;15.69;86.33
76404;BME280;65232;48.358;2.122;2023-05-09T00:22:52;101089.19;;;15.68;86.43
76404;BME280;65232;48.358;2.122;2023-05-09T00:23:17;101090.50;;;15.64;86.93
76404;BME280;65232;48.358;2.122;2023-05-09T00:23:43;101084.53;;;15.61;87.22
76404;BME280;65232;48.358;2.122;2023-05-09T00:24:08;101093.19;;;15.64;86.90
76404;BME280;65232;48.358;2.122;2023-05-09T00:24:34;101092.19;;;15.65;87.14
76404;BME280;65232;48.358;2.122;2023-05-09T00:24:59;101092.19;;;15.65;87.03
76404;BME280;65232;48.358;2.122;2023-05-09T00:25:25;101085.25;;;15.63;87.28
76404;BME280;65232;48.358;2.122;2023-05-09T00:25:50;101093.03;;;15.66;87.12
76404;BME280;65232;48.358;2.122;2023-05-09T00:26:16;101091.03;;;15.68;86.88
76404;BME280;65232;48.358;2.122;2023-05-09T00:26:42;101093.44;;;15.71;86.54
76404;BME280;65232;48.358;2.122;2023-05-09T00:27:08;101091.75;;;15.70;86.67
76404;BME280;65232;48.358;2.122;2023-05-09T00:27:34;101086.78;;;15.65;86.77
76404;BME280;65232;48.358;2.122;2023-05-09T00:28:00;101089.66;;;15.64;87.28
76404;BME280;65232;48.358;2.122;2023-05-09T00:28:25;101086.94;;;15.64;87.10
76404;BME280;65232;48.358;2.122;2023-05-09T00:28:51;101090.63;;;15.63;86.91
76404;BME280;65232;48.358;2.122;2023-05-09T00:29:17;101093.50;;;15.61;87.11
76404;BME280;65232;48.358;2.122;2023-05-09T00:29:42;101084.94;;;15.66;86.91
76404;BME280;65232;48.358;2.122;2023-05-09T00:30:08;101088.78;;;15.63;87.28
76404;BME280;65232;48.358;2.122;2023-05-09T00:30:34;101085.72;;;15.58;87.36
76404;BME280;65232;48.358;2.122;2023-05-09T00:30:59;101082.00;;;15.59;87.41
76404;BME280;65232;48.358;2.122;2023-05-09T00:31:25;101083.69;;;15.60;87.11
76404;BME280;65232;48.358;2.122;2023-05-09T00:31:50;101080.00;;;15.61;86.70
76404;BME280;65232;48.358;2.122;2023-05-09T00:32:16;101086.66;;;15.67;86.87
76404;BME280;65232;48.358;2.122;2023-05-09T00:32:41;101077.28;;;15.61;86.83
76404;BME280;65232;48.358;2.122;2023-05-09T00:33:07;101078.84;;;15.64;86.80
76404;BME280;65232;48.358;2.122;2023-05-09T00:33:32;101078.69;;;15.65;86.68
76404;BME280;65232;48.358;2.122;2023-05-09T00:33:58;101086.25;;;15.62;86.59
76404;BME280;65232;48.358;2.122;2023-05-09T00:34:23;101078.53;;;15.67;86.63
76404;BME280;65232;48.358;2.122;2023-05-09T00:34:49;101085.94;;;15.65;86.32
76404;BME280;65232;48.358;2.122;2023-05-09T00:35:14;101076.00;;;15.65;86.47
76404;BME280;65232;48.358;2.122;2023-05-09T00:35:40;101076.44;;;15.61;86.61
76404;BME280;65232;48.358;2.122;2023-05-09T00:36:06;101079.69;;;15.64;86.75
76404;BME280;65232;48.358;2.122;2023-05-09T00:36:32;101077.56;;;15.68;86.32
76404;BME280;65232;48.358;2.122;2023-05-09T00:36:58;101075.00;;;15.66;86.17
76404;BME280;65232;48.358;2.122;2023-05-09T00:37:23;101080.41;;;15.66;86.36
76404;BME280;65232;48.358;2.122;2023-05-09T00:37:49;101079.53;;;15.66;85.95
76404;BME280;65232;48.358;2.122;2023-05-09T00:38:14;101079.53;;;15.66;86.25
76404;BME280;65232;48.358;2.122;2023-05-09T00:38:39;101075.16;;;15.65;86.62
76404;BME280;65232;48.358;2.122;2023-05-09T00:39:05;101080.84;;;15.62;86.38
76404;BME280;65232;48.358;2.122;2023-05-09T00:39:30;101075.31;;;15.63;86.71
76404;BME280;65232;48.358;2.122;2023-05-09T00:39:56;101077.84;;;15.65;86.62
76404;BME280;65232;48.358;2.122;2023-05-09T00:40:21;101073.59;;;15.62;86.71
76404;BME280;65232;48.358;2.122;2023-05-09T00:40:47;101074.44;;;15.63;86.79
76404;BME280;65232;48.358;2.122;2023-05-09T00:41:12;101084.41;;;15.62;86.76
76404;BME280;65232;48.358;2.122;2023-05-09T00:41:38;101079.16;;;15.61;86.96
76404;BME280;65232;48.358;2.122;2023-05-09T00:42:03;101076.78;;;15.58;87.14
76404;BME280;65232;48.358;2.122;2023-05-09T00:42:29;101068.69;;;15.58;86.78
76404;BME280;65232;48.358;2.122;2023-05-09T00:42:54;101068.69;;;15.58;87.00
76404;BME280;65232;48.358;2.122;2023-05-09T00:43:22;101077.03;;;15.55;87.10
76404;BME280;65232;48.358;2.122;2023-05-09T00:43:47;101074.59;;;15.61;86.77
76404;BME280;65232;48.358;2.122;2023-05-09T00:44:13;101066.00;;;15.58;86.89
76404;BME280;65232;48.358;2.122;2023-05-09T00:44:38;101066.25;;;15.55;86.70
76404;BME280;65232;48.358;2.122;2023-05-09T00:45:04;101068.09;;;15.54;87.19
76404;BME280;65232;48.358;2.122;2023-05-09T00:45:31;101064.56;;;15.53;86.97
76404;BME280;65232;48.358;2.122;2023-05-09T00:45:56;101061.16;;;15.51;87.33
76404;BME280;65232;48.358;2.122;2023-05-09T00:46:22;101065.41;;;15.54;87.04
76404;BME280;65232;48.358;2.122;2023-05-09T00:46:48;101070.25;;;15.50;87.36
76404;BME280;65232;48.358;2.122;2023-05-09T00:47:13;101054.75;;;15.52;87.19
76404;BME280;65232;48.358;2.122;2023-05-09T00:47:39;101064.00;;;15.50;86.91
76404;BME280;65232;48.358;2.122;2023-05-09T00:48:05;101064.16;;;15.48;87.02
76404;BME280;65232;48.358;2.122;2023-05-09T00:48:31;101063.16;;;15.49;87.08
76404;BME280;65232;48.358;2.122;2023-05-09T00:48:56;101071.09;;;15.51;86.87
76404;BME280;65232;48.358;2.122;2023-05-09T00:49:22;101066.69;;;15.50;87.05
76404;BME280;65232;48.358;2.122;2023-05-09T00:49:47;101064.72;;;15.52;86.91
76404;BME280;65232;48.358;2.122;2023-05-09T00:50:13;101072.94;;;15.50;86.67
76404;BME280;65232;48.358;2.122;2023-05-09T00:50:39;101067.41;;;15.52;86.90
76404;BME280;65232;48.358;2.122;2023-05-09T00:51:04;101061.75;;;15.55;87.05
76404;BME280;65232;48.358;2.122;2023-05-09T00:51:30;101065.28;;;15.56;87.10
76404;BME280;65232;48.358;2.122;2023-05-09T00:51:57;101066.25;;;15.55;87.14
76404;BME280;65232;48.358;2.122;2023-05-09T00:52:23;101061.00;;;15.53;86.97
76404;BME280;65232;48.358;2.122;2023-05-09T00:52:50;101058.31;;;15.53;87.02
76404;BME280;65232;48.358;2.122;2023-05-09T00:53:15;101063.72;;;15.53;87.09
76404;BME280;65232;48.358;2.122;2023-05-09T00:53:41;101055.22;;;15.48;87.08
76404;BME280;65232;48.358;2.122;2023-05-09T00:54:07;101070.53;;;15.47;86.75
76404;BME280;65232;48.358;2.122;2023-05-09T00:54:32;101058.53;;;15.42;86.66
76404;BME280;65232;48.358;2.122;2023-05-09T00:54:59;101061.38;;;15.40;86.91
76404;BME280;65232;48.358;2.122;2023-05-09T00:55:25;101054.13;;;15.41;87.13
76404;BME280;65232;48.358;2.122;2023-05-09T00:55:52;101064.22;;;15.39;87.07
76404;BME280;65232;48.358;2.122;2023-05-09T00:56:19;101062.09;;;15.42;86.69
76404;BME280;65232;48.358;2.122;2023-05-09T00:56:46;101052.66;;;15.46;86.72
76404;BME280;65232;48.358;2.122;2023-05-09T00:57:11;101057.84;;;15.40;86.68
76404;BME280;65232;48.358;2.122;2023-05-09T00:57:36;101059.38;;;15.42;86.74
76404;BME280;65232;48.358;2.122;2023-05-09T00:58:02;101059.19;;;15.44;86.79
76404;BME280;65232;48.358;2.122;2023-05-09T00:58:28;101056.28;;;15.37;87.20
76404;BME280;65232;48.358;2.122;2023-05-09T00:58:54;101058.13;;;15.37;87.06
76404;BME280;65232;48.358;2.122;2023-05-09T00:59:20;101061.13;;;15.34;87.39
76404;BME280;65232;48.358;2.122;2023-05-09T00:59:46;101053.19;;;15.32;87.49
76404;BME280;65232;48.358;2.122;2023-05-09T01:00:12;101055.88;;;15.32;87.80
76404;BME280;65232;48.358;2.122;2023-05-09T01:00:38;101047.25;;;15.29;87.88
76404;BME280;65232;48.358;2.122;2023-05-09T01:01:04;101050.25;;;15.26;87.89
76404;BME280;65232;48.358;2.122;2023-05-09T01:01:29;101052.34;;;15.32;87.74
76404;BME280;65232;48.358;2.122;2023-05-09T01:01:55;101051.19;;;15.34;87.13
76404;BME280;65232;48.358;2.122;2023-05-09T01:02:20;101054.72;;;15.35;87.44
76404;BME280;65232;48.358;2.122;2023-05-09T01:02:49;101050.50;;;15.32;87.01
76404;BME280;65232;48.358;2.122;2023-05-09T01:03:17;101051.47;;;15.31;87.39
76404;BME280;65232;48.358;2.122;2023-05-09T01:03:43;101051.47;;;15.31;87.50
76404;BME280;65232;48.358;2.122;2023-05-09T01:04:09;101052.47;;;15.30;87.26
76404;BME280;65232;48.358;2.122;2023-05-09T01:04:36;101049.94;;;15.29;87.41
76404;BME280;65232;48.358;2.122;2023-05-09T01:05:01;101046.72;;;15.25;87.56
76404;BME280;65232;48.358;2.122;2023-05-09T01:05:54;101057.34;;;15.27;87.60
76404;BME280;65232;48.358;2.122;2023-05-09T01:08:01;101044.72;;;15.27;87.32
76404;BME280;65232;48.358;2.122;2023-05-09T01:08:57;101045.78;;;15.34;87.18
76404;BME280;65232;48.358;2.122;2023-05-09T01:10:57;101036.00;;;15.33;86.92
76404;BME280;65232;48.358;2.122;2023-05-09T01:11:00;101045.03;;;15.24;87.16
76404;BME280;65232;48.358;2.122;2023-05-09T01:11:31;101034.78;;;15.28;86.91
76404;BME280;65232;48.358;2.122;2023-05-09T01:13:05;101039.63;;;15.24;86.79
76404;BME280;65232;48.358;2.122;2023-05-09T01:14:04;101035.09;;;15.25;86.78
76404;BME280;65232;48.358;2.122;2023-05-09T01:14:49;101035.53;;;15.20;
76404;BME280;65232;48.358;2.122;2023-05-09T01:15:35;101031.69;;;15.23;86.94
76404;BME280;65232;48.358;2.122;2023-05-09T01:16:09;101038.38;;;15.18;86.92
76404;BME280;65232;48.358;2.122;2023-05-09T01:17:36;101035.81;;;15.17;86.87
76404;BME280;65232;48.358;2.122;2023-05-09T01:17:42;101033.81;;;15.19;86.85
76404;BME280;65232;48.358;2.122;2023-05-09T01:18:26;101034.53;;;15.21;86.87
76404;BME280;65232;48.358;2.122;2023-05-09T01:19:00;101030.56;;;15.15;87.12
76404;BME280;65232;48.358;2.122;2023-05-09T01:21:14;101030.34;;;15.09;87.23
76404;BME280;65232;48.358;2.122;2023-05-09T01:21:42;101035.44;;;15.12;87.30
76404;BME280;65232;48.358;2.122;2023-05-09T01:22:11;101028.34;;;15.11;87.13
76404;BME280;65232;48.358;2.122;2023-05-09T01:22:42;101030.06;;;15.12;87.09
76404;BME280;65232;48.358;2.122;2023-05-09T01:24:33;101029.06;;;15.13;87.38
76404;BME280;65232;48.358;2.122;2023-05-09T01:25:43;101027.50;;;15.10;87.12
76404;BME280;65232;48.358;2.122;2023-05-09T01:26:16;101022.81;;;15.12;87.58
76404;BME280;65232;48.358;2.122;2023-05-09T01:27:44;101019.88;;;15.06;87.55
76404;BME280;65232;48.358;2.122;2023-05-09T01:28:18;101024.56;;;15.04;87.57
76404;BME280;65232;48.358;2.122;2023-05-09T01:29:41;101020.44;;;15.00;87.66
76404;BME280;65232;48.358;2.122;2023-05-09T01:30:10;101022.84;;;15.03;87.77
76404;BME280;65232;48.358;2.122;2023-05-09T01:30:36;101022.00;;;15.02;87.25
76404;BME280;65232;48.358;2.122;2023-05-09T01:31:03;101019.44;;;15.01;87.36
76404;BME280;65232;48.358;2.122;2023-05-09T01:31:31;101013.34;;;14.99;87.29
76404;BME280;65232;48.358;2.122;2023-05-09T01:32:02;101015.91;;;15.00;86.82
76404;BME280;65232;48.358;2.122;2023-05-09T01:32:31;101015.38;;;14.97;86.83
76404;BME280;65232;48.358;2.122;2023-05-09T01:32:59;101010.44;;;14.92;87.31
76404;BME280;65232;48.358;2.122;2023-05-09T01:33:32;101012.13;;;14.93;87.28
76404;BME280;65232;48.358;2.122;2023-05-09T01:34:01;101014.13;;;14.91;87.35
76404;BME280;65232;48.358;2.122;2023-05-09T01:34:27;101014.72;;;14.85;87.64
76404;BME280;65232;48.358;2.122;2023-05-09T01:34:58;101011.03;;;14.86;87.69
76404;BME280;65232;48.358;2.122;2023-05-09T01:35:25;101005.34;;;14.89;87.58
76404;BME280;65232;48.358;2.122;2023-05-09T01:36:03;101003.78;;;14.87;87.70
76404;BME280;65232;48.358;2.122;2023-05-09T01:36:31;101006.88;;;14.92;87.58
76404;BME280;65232;48.358;2.122;2023-05-09T01:36:58;101004.47;;;14.89;87.72
76404;BME280;65232;48.358;2.122;2023-05-09T01:37:30;101013.28;;;14.91;87.88
76404;BME280;65232;48.358;2.122;2023-05-09T01:37:57;101006.19;;;14.90;87.71
76404;BME280;65232;48.358;2.122;2023-05-09T01:38:24;101007.03;;;14.90;87.55
76404;BME280;65232;48.358;2.122;2023-05-09T01:38:50;101005.88;;;14.93;87.58
76404;BME280;65232;48.358;2.122;2023-05-09T01:39:17;101009.44;;;14.93;87.24
76404;BME280;65232;48.358;2.122;2023-05-09T01:39:47;101009.44;;;14.93;87.35
76404;BME280;65232;48.358;2.122;2023-05-09T01:40:16;101011.44;;;14.91;87.31
76404;BME280;65232;48.358;2.122;2023-05-09T01:40:46;101006.88;;;14.92;87.24
76404;BME280;65232;48.358;2.122;2023-05-09T01:41:14;101008.28;;;14.96;87.05
76404;BME280;65232;48.358;2.122;2023-05-09T01:41:40;101005.28;;;14.99;86.89
76404;BME280;65232;48.358;2.122;2023-05-09T01:42:08;101007.31;;;14.97;86.83
76404;BME280;65232;48.358;2.122;2023-05-09T01:42:42;101006.03;;;14.91;87.41
76404;BME280;65232;48.358;2.122;2023-05-09T01:43:09;101006.88;;;14.92;86.89
76404;BME280;65232;48.358;2.122;2023-05-09T01:43:37;101005.03;;;14.92;86.95
76404;BME280;65232;48.358;2.122;2023-05-09T01:44:05;101005.34;;;14.89;87.13
76404;BME280;65232;48.358;2.122;2023-05-09T01:44:38;101003.63;;;14.88;87.50
76404;BME280;65232;48.358;2.122;2023-05-09T01:45:04;100999.81;;;14.91;86.86
76404;BME280;65232;48.358;2.122;2023-05-09T01:45:31;100996.56;;;14.87;87.26
76404;BME280;65232;48.358;2.122;2023-05-09T01:45:58;101002.09;;;14.86;87.22
76404;BME280;65232;48.358;2.122;2023-05-09T01:46:24;101003.94;;;14.85;87.35
76404;BME280;65232;48.358;2.122;2023-05-09T01:46:52;101000.00;;;14.79;87.55
76404;BME280;65232;48.358;2.122;2023-05-09T01:47:18;101003.25;;;14.83;87.47
76404;BME280;65232;48.358;2.122;2023-05-09T01:47:46;101000.09;;;14.88;87.21
76404;BME280;65232;48.358;2.122;2023-05-09T01:48:13;100997.94;;;14.91;87.04
76404;BME280;65232;48.358;2.122;2023-05-09T01:48:41;101003.34;;;14.91;86.96
76404;BME280;65232;48.358;2.122;2023-05-09T01:49:09;101004.91;;;14.94;86.78
76404;BME280;65232;48.358;2.122;2023-05-09T01:49:37;101003.91;;;14.95;86.94
76404;BME280;65232;48.358;2.122;2023-05-09T01:50:05;101005.81;;;15.02;86.50
76404;BME280;65232;48.358;2.122;2023-05-09T01:50:31;100997.03;;;15.00;86.62
76404;BME280;65232;48.358;2.122;2023-05-09T01:51:00;101005.44;;;14.97;86.61
76404;BME280;65232;48.358;2.122;2023-05-09T01:51:27;100998.66;;;14.93;86.59
76404;BME280;65232;48.358;2.122;2023-05-09T01:51:54;100999.09;;;14.89;87.49
76404;BME280;65232;48.358;2.122;2023-05-09T01:52:21;100993.84;;;14.87;87.29
76404;BME280;65232;48.358;2.122;2023-05-09T01:52:48;100998.09;;;14.90;86.80
76404;BME280;65232;48.358;2.122;2023-05-09T01:53:16;100995.69;;;14.87;87.32
76404;BME280;65232;48.358;2.122;2023-05-09T01:53:42;101000.25;;;14.86;87.74
76404;BME280;65232;48.358;2.122;2023-05-09T01:54:09;101004.94;;;14.84;87.54
76404;BME280;65232;48.358;2.122;2023-05-09T01:54:36;101000.25;;;14.86;87.53
76404;BME280;65232;48.358;2.122;2023-05-09T01:55:04;100998.41;;;14.87;87.80
76404;BME280;65232;48.358;2.122;2023-05-09T01:55:31;100998.25;;;14.88;87.77
76404;BME280;65232;48.358;2.122;2023-05-09T01:55:58;100992.72;;;14.90;87.39
76404;BME280;65232;48.358;2.122;2023-05-09T01:56:25;100996.97;;;14.92;87.00
76404;BME280;65232;48.358;2.122;2023-05-09T01:56:53;101002.50;;;14.91;87.04
76404;BME280;65232;48.358;2.122;2023-05-09T01:57:20;100997.09;;;14.91;87.05
76404;BME280;65232;48.358;2.122;2023-05-09T01:57:47;100996.97;;;14.92;87.00
76404;BME280;65232;48.358;2.122;2023-05-09T01:58:14;101002.66;;;14.89;87.37
76404;BME280;65232;48.358;2.122;2023-05-09T01:58:41;100999.94;;;14.89;87.83
76404;BME280;65232;48.358;2.122;2023-05-09T01:59:07;100996.56;;;14.87;87.90
76404;BME280;65232;48.358;2.122;2023-05-09T01:59:39;100997.94;;;14.91;87.66
76404;BME280;65232;48.358;2.122;2023-05-09T02:00:06;100994.25;;;14.92;87.98
76404;BME280;65232;48.358;2.122;2023-05-09T02:00:38;101001.78;;;14.89;87.93
76404;BME280;65232;48.358;2.122;2023-05-09T02:01:04;101001.66;;;14.90;87.83
76404;BME280;65232;48.358;2.122;2023-05-09T02:01:30;101001.66;;;14.90;88.00
76404;BME280;65232;48.358;2.122;2023-05-09T02:01:56;100996.56;;;14.87;88.14
76404;BME280;65232;48.358;2.122;2023-05-09T02:02:22;100995.41;;;14.90;88.10
76404;BME280;65232;48.358;2.122;2023-05-09T02:02:48;100996.25;;;14.90;87.93
76404;BME280;65232;48.358;2.122;2023-05-09T02:03:14;101005.34;;;14.89;88.10
76404;BME280;65232;48.358;2.122;2023-05-09T02:03:41;101005.34;;;14.89;87.85
76404;BME280;65232;48.358;2.122;2023-05-09T02:04:09;101002.34;;;14.92;87.92
76404;BME280;65232;48.358;2.122;2023-05-09T02:04:35;101006.03;;;14.91;88.01
76404;BME280;65232;48.358;2.122;2023-05-09T02:05:01;101000.94;;;14.88;87.75
76404;BME280;65232;48.358;2.122;2023-05-09T02:05:27;101004.63;;;14.87;87.86
76404;BME280;65232;48.358;2.122;2023-05-09T02:05:54;100998.94;;;14.90;87.76
76404;BME280;65232;48.358;2.122;2023-05-09T02:06:22;100993.84;;;14.87;88.00
76404;BME280;65232;48.358;2.122;2023-05-09T02:06:49;100995.69;;;14.87;87.85
76404;BME280;65232;48.358;2.122;2023-05-09T02:07:16;100998.53;;;14.85;87.77
76404;BME280;65232;48.358;2.122;2023-05-09T02:07:43;100998.41;;;14.87;87.86
76404;BME280;65232;48.358;2.122;2023-05-09T02:08:10;100993.56;;;14.90;87.74
76404;BME280;65232;48.358;2.122;2023-05-09T02:08:38;100992.81;;;14.98;87.42
76404;BME280;65232;48.358;2.122;2023-05-09T02:09:04;100993.81;;;14.97;87.68
76404;BME280;65232;48.358;2.122;2023-05-09T02:09:29;100995.13;;;14.93;87.51
76404;BME280;65232;48.358;2.122;2023-05-09T02:09:57;100992.56;;;14.91;87.34
76404;BME280;65232;48.358;2.122;2023-05-09T02:10:22;100995.25;;;14.91;87.83
76404;BME280;65232;48.358;2.122;2023-05-09T02:10:49;100993.00;;;14.87;87.83
76404;BME280;65232;48.358;2.122;2023-05-09T02:11:15;100993.84;;;14.87;87.95
76404;BME280;65232;48.358;2.122;2023-05-09T02:11:41;100989.88;;;14.91;87.68
76404;BME280;65232;48.358;2.122;2023-05-09T02:12:06;100994.50;;;14.99;88.01
76404;BME280;65232;48.358;2.122;2023-05-09T02:12:32;100989.44;;;14.96;87.06
76404;BME280;65232;48.358;2.122;2023-05-09T02:12:58;100983.19;;;14.95;86.91
76404;BME280;65232;48.358;2.122;2023-05-09T02:13:23;100980.34;;;14.97;86.92
76404;BME280;65232;48.358;2.122;2023-05-09T02:13:49;100986.25;;;15.00;86.79
76404;BME280;65232;48.358;2.122;2023-05-09T02:14:15;100980.19;;;14.98;86.85
76404;BME280;65232;48.358;2.122;2023-05-09T02:14:40;100984.75;;;14.98;87.21
76404;BME280;65232;48.358;2.122;2023-05-09T02:15:06;100984.03;;;14.96;87.01
76404;BME280;65232;48.358;2.122;2023-05-09T02:15:33;100982.72;;;15.00;87.06
76404;BME280;65232;48.358;2.122;2023-05-09T02:15:59;100982.19;;;14.96;87.11
76404;BME280;65232;48.358;2.122;2023-05-09T02:16:25;100988.59;;;14.95;87.18
76404;BME280;65232;48.358;2.122;2023-05-09T02:16:51;100983.03;;;14.97;87.43
76404;BME280;65232;48.358;2.122;2023-05-09T02:17:17;100980.50;;;14.95;87.18
76404;BME280;65232;48.358;2.122;2023-05-09T02:17:43;100985.41;;;15.00;87.22
76404;BME280;65232;48.358;2.122;2023-05-09T02:18:08;100986.59;;;14.97;86.71
76404;BME280;65232;48.358;2.122;2023-05-09T02:18:34;100981.88;;;14.99;86.63
76404;BME280;65232;48.358;2.122;2023-05-09T02:18:59;100983.88;;;14.97;86.77
76404;BME280;65232;48.358;2.122;2023-05-09T02:19:26;100987.44;;;14.98;87.31
76404;BME280;65232;48.358;2.122;2023-05-09T02:19:52;100977.31;;;15.00;87.40
76404;BME280;65232;48.358;2.122;2023-05-09T02:20:18;100982.91;;;14.98;87.32
76404;BME280;65232;48.358;2.122;2023-05-09T02:20:43;100985.41;;;15.00;87.43
76404;BME280;65232;48.358;2.122;2023-05-09T02:21:10;100989.09;;;14.99;87.47
76404;BME280;65232;48.358;2.122;2023-05-09T02:21:36;100986.72;;;14.96;87.74
76404;BME280;65232;48.358;2.122;2023-05-09T02:22:02;100984.88;;;14.96;87.71
76404;BME280;65232;48.358;2.122;2023-05-09T02:22:29;100973.63;;;15.01;87.90
76404;BME280;65232;48.358;2.122;2023-05-09T02:22:56;100981.28;;;15.05;87.23
76404;BME280;65232;48.358;2.122;2023-05-09T02:23:21;100978.03;;;15.02;87.13
76404;BME280;65232;48.358;2.122;2023-05-09T02:23:47;100978.72;;;15.04;87.19
76404;BME280;65232;48.358;2.122;2023-05-09T02:24:12;100978.56;;;15.05;86.87
76404;BME280;65232;48.358;2.122;2023-05-09T02:24:39;100979.44;;;15.06;87.18
76404;BME280;65232;48.358;2.122;2023-05-09T02:25:06;100973.34;;;15.04;87.22
76404;BME280;65232;48.358;2.122;2023-05-09T02:25:33;100973.47;;;15.02;87.42
76404;BME280;65232;48.358;2.122;2023-05-09T02:25:59;100981.72;;;15.01;87.32
76404;BME280;65232;48.358;2.122;2023-05-09T02:26:25;100980.72;;;15.02;87.50
76404;BME280;65232;48.358;2.122;2023-05-09T02:26:51;100979.88;;;15.01;87.39
76404;BME280;65232;48.358;2.122;2023-05-09T02:27:17;100979.72;;;15.03;87.13
76404;BME280;65232;48.358;2.122;2023-05-09T02:27:45;100981.72;;;15.01;87.46
76404;BME280;65232;48.358;2.122;2023-05-09T02:28:11;100984.41;;;15.01;87.48
76404;BME280;65232;48.358;2.122;2023-05-09T02:28:37;100975.63;;;14.99;87.68
76404;BME280;65232;48.358;2.122;2023-05-09T02:29:04;100981.72;;;15.01;87.43
76404;BME280;65232;48.358;2.122;2023-05-09T02:29:34;100982.56;;;15.01;87.65
76404;BME280;65232;48.358;2.122;2023-05-09T02:30:07;100982.72;;;15.00;87.76
76404;BME280;65232;48.358;2.122;2023-05-09T02:30:39;100980.19;;;14.98;87.88
76404;BME280;65232;48.358;2.122;2023-05-09T02:31:07;100977.88;;;15.03;87.51
76404;BME280;65232;48.358;2.122;2023-05-09T02:31:33;100984.41;;;15.01;87.89
76404;BME280;65232;48.358;2.122;2023-05-09T02:32:00;100983.41;;;15.02;87.65
76404;BME280;65232;48.358;2.122;2023-05-09T02:32:30;100973.34;;;15.04;87.73